Time;durP1;ratioP1;P1;durP2;ratioP2;P2;SDS_P1;SDS_P2;PMS_P1;PMS_P2;Temp;Humidity;BMP_temperature;BMP_pressure;BME280_temperature;BME280_humidity;BME280_pressure;Samples;Min_cycle;Max_cycle;Signal;HPM_P1;HPM_P2
2023/05/28 00:00:15;;;;;;;23.98;12.82;;;;;;;15.85;nan;100468.06;5060872;28;20024;-72
2023/05/28 00:02:40;;;;;;;24.58;14.02;;;;;;;15.86;nan;100467.81;5062642;28;20029;-72
2023/05/28 00:05:06;;;;;;;25.38;13.80;;;;;;;15.79;nan;100455.84;5064070;28;20713;-72
2023/05/28 00:07:32;;;;;;;25.75;12.88;;;;;;;15.83;nan;100455.06;5061766;28;20039;-72
2023/05/28 00:09:58;;;;;;;22.55;13.30;;;;;;;15.82;nan;100453.44;5059733;28;20032;-72
2023/05/28 00:12:23;;;;;;;23.25;13.30;;;;;;;15.79;nan;100446.00;5061116;28;20031;-72
2023/05/28 00:14:49;;;;;;;24.13;13.15;;;;;;;15.84;nan;100451.34;5061150;28;20490;-72
2023/05/28 00:17:18;;;;;;;21.45;13.65;;;;;;;15.85;nan;100447.66;5062389;28;20485;-71
2023/05/28 00:19:44;;;;;;;21.50;13.57;;;;;;;15.76;nan;100424.50;5059034;28;20036;-72
2023/05/28 00:22:09;;;;;;;22.55;13.07;;;;;;;15.86;nan;100443.91;5045537;28;20036;-72
2023/05/28 00:24:35;;;;;;;26.58;13.23;;;;;;;15.88;nan;100448.97;5061832;28;20036;-73
2023/05/28 00:27:01;;;;;;;20.88;12.82;;;;;;;15.77;nan;100428.75;5059009;28;20033;-72
2023/05/28 00:29:26;;;;;;;24.38;13.25;;;;;;;15.74;nan;100432.72;5051304;28;20127;-72
2023/05/28 00:31:56;;;;;;;23.95;13.95;;;;;;;15.73;nan;100428.47;5048796;28;20025;-72
2023/05/28 00:34:23;;;;;;;26.55;13.18;;;;;;;15.76;nan;100433.25;5062629;28;20055;-72
2023/05/28 00:36:48;;;;;;;26.30;12.50;;;;;;;15.72;nan;100429.50;5058919;28;20043;-69
2023/05/28 00:39:18;;;;;;;21.65;13.13;;;;;;;15.71;nan;100428.72;5058542;28;20025;-68
2023/05/28 00:41:44;;;;;;;24.45;13.68;;;;;;;15.71;nan;100425.28;5060310;28;20140;-69
2023/05/28 00:44:10;;;;;;;22.98;13.27;;;;;;;15.51;nan;100394.06;5061838;28;20029;-68
2023/05/28 00:46:37;;;;;;;22.10;12.30;;;;;;;15.67;nan;100414.31;5060126;28;20028;-69
2023/05/28 00:49:02;;;;;;;20.85;12.15;;;;;;;15.62;nan;100405.56;5060479;28;20037;-70
2023/05/28 00:51:29;;;;;;;21.25;12.23;;;;;;;15.62;nan;100409.00;5058246;28;20039;-70
2023/05/28 00:53:55;;;;;;;21.05;12.30;;;;;;;15.66;nan;100403.97;5042364;28;20386;-70
2023/05/28 00:56:22;;;;;;;24.05;12.90;;;;;;;15.70;nan;100410.38;5044780;28;20028;-70
2023/05/28 00:58:49;;;;;;;20.30;12.52;;;;;;;15.73;nan;100418.66;5059845;28;20473;-70
2023/05/28 01:01:15;;;;;;;20.20;11.82;;;;;;;15.71;nan;100410.13;5058710;28;20028;-69
2023/05/28 01:03:41;;;;;;;22.85;12.70;;;;;;;15.78;nan;100422.34;5058908;28;20563;-69
2023/05/28 01:06:09;;;;;;;20.85;12.65;;;;;;;15.79;nan;100421.31;5061987;28;20025;-69
2023/05/28 01:08:36;;;;;;;20.00;11.45;;;;;;;15.79;nan;100418.66;5058960;28;20032;-69
2023/05/28 01:11:02;;;;;;;21.35;11.30;;;;;;;15.79;nan;100421.31;5059701;28;20047;-72
2023/05/28 01:13:28;;;;;;;18.40;12.38;;;;;;;15.74;nan;100416.78;5046841;28;20020;-72
2023/05/28 01:15:54;;;;;;;19.38;11.88;;;;;;;15.74;nan;100419.44;5061944;28;20096;-73
2023/05/28 01:18:19;;;;;;;15.85;11.52;;;;;;;15.76;nan;100427.94;5058750;28;20032;-72
2023/05/28 01:20:45;;;;;;;17.55;11.32;;;;;;;15.70;nan;100415.69;5063156;28;20071;-72
2023/05/28 01:23:15;;;;;;;22.02;11.77;;;;;;;15.65;nan;100418.28;5063278;28;20043;-73
2023/05/28 01:25:41;;;;;;;19.95;11.93;;;;;;;15.72;nan;100422.34;5060494;28;20036;-73
2023/05/28 01:28:15;;;;;;;20.98;12.55;;;;;;;15.71;nan;100422.63;5060480;28;20028;-73
2023/05/28 01:30:41;;;;;;;24.17;12.63;;;;;;;15.75;nan;100421.03;5060064;28;20545;-72
2023/05/28 01:33:06;;;;;;;21.98;13.13;;;;;;;15.73;nan;100415.19;5062662;28;20050;-73
2023/05/28 01:35:32;;;;;;;23.48;12.88;;;;;;;15.75;nan;100413.06;5062224;28;20021;-72
2023/05/28 01:38:02;;;;;;;27.02;13.32;;;;;;;15.79;nan;100405.38;5058483;28;20033;-73
2023/05/28 01:40:29;;;;;;;23.23;11.70;;;;;;;15.78;nan;100406.44;5061617;28;20025;-73
2023/05/28 01:42:55;;;;;;;22.88;12.80;;;;;;;15.63;nan;100401.81;5048579;28;20081;-72
2023/05/28 01:45:21;;;;;;;21.65;11.98;;;;;;;15.62;nan;100405.56;5058269;28;20051;-73
2023/05/28 01:47:48;;;;;;;22.38;12.10;;;;;;;15.62;nan;100402.91;5058845;28;20433;-73
2023/05/28 01:50:14;;;;;;;20.75;12.98;;;;;;;15.66;nan;100412.75;5059272;28;20019;-71
2023/05/28 01:52:40;;;;;;;21.20;12.23;;;;;;;15.64;nan;100403.44;5058804;28;20033;-72
2023/05/28 01:55:08;;;;;;;25.10;12.65;;;;;;;15.58;nan;100396.50;5056633;28;20134;-72
2023/05/28 01:57:34;;;;;;;18.95;12.02;;;;;;;15.67;nan;100416.19;5060055;28;20029;-71
2023/05/28 02:00:00;;;;;;;20.42;12.43;;;;;;;15.48;nan;100379.47;5057405;28;20390;-71
2023/05/28 02:02:26;;;;;;;23.70;13.13;;;;;;;15.68;nan;100407.97;5037683;28;20037;-72
2023/05/28 02:04:52;;;;;;;21.90;12.82;;;;;;;15.62;nan;100402.91;5060627;28;20036;-73
2023/05/28 02:07:18;;;;;;;20.70;13.10;;;;;;;15.62;nan;100402.91;5060626;28;20036;-71
2023/05/28 02:09:44;;;;;;;21.73;12.68;;;;;;;15.63;nan;100396.53;5060416;28;20032;-71
2023/05/28 02:12:10;;;;;;;23.70;12.65;;;;;;;15.70;nan;100411.19;5058613;28;20021;-71
2023/05/28 02:14:36;;;;;;;23.55;12.82;;;;;;;15.69;nan;100414.06;5059468;28;20029;-72
2023/05/28 02:17:01;;;;;;;23.67;12.75;;;;;;;15.62;nan;100411.66;5060798;28;20028;-71
2023/05/28 02:19:27;;;;;;;26.25;12.32;;;;;;;15.72;nan;100425.00;5049285;28;20051;-71
2023/05/28 02:21:53;;;;;;;21.35;13.02;;;;;;;15.70;nan;100423.66;5054759;28;20498;-71
2023/05/28 02:24:18;;;;;;;24.42;12.52;;;;;;;15.48;nan;100391.94;5060546;28;20059;-71
2023/05/28 02:26:44;;;;;;;19.50;11.65;;;;;;;15.62;nan;100410.84;5046164;28;20052;-71
2023/05/28 02:29:09;;;;;;;30.98;12.63;;;;;;;15.61;nan;100415.38;5057552;28;20430;-70
2023/05/28 02:31:35;;;;;;;25.55;13.02;;;;;;;15.64;nan;100422.03;5059967;28;20041;-70
2023/05/28 02:34:00;;;;;;;23.40;13.02;;;;;;;15.65;nan;100416.44;5048205;28;20043;-70
2023/05/28 02:36:25;;;;;;;23.50;13.35;;;;;;;15.67;nan;100429.47;5060946;28;20017;-71
2023/05/28 02:38:51;;;;;;;24.83;13.98;;;;;;;15.63;nan;100428.38;5064169;28;20128;-71
2023/05/28 02:41:16;;;;;;;25.98;13.50;;;;;;;15.50;nan;100416.38;5049394;28;20035;-71
2023/05/28 02:43:43;;;;;;;24.33;12.90;;;;;;;15.62;nan;100435.53;5061450;28;20029;-70
2023/05/28 02:46:08;;;;;;;21.05;13.02;;;;;;;15.61;nan;100436.63;5064167;28;20021;-71
2023/05/28 02:48:34;;;;;;;25.17;12.68;;;;;;;15.60;nan;100432.34;5060367;28;20031;-71
2023/05/28 02:50:59;;;;;;;24.70;12.38;;;;;;;15.52;nan;100430.19;5059310;28;20032;-70
2023/05/28 02:53:30;;;;;;;22.65;12.55;;;;;;;15.47;nan;100432.81;5059229;28;20028;-70
2023/05/28 02:55:55;;;;;;;23.05;12.20;;;;;;;15.50;nan;100443.69;5057752;28;20052;-70
2023/05/28 02:58:21;;;;;;;26.85;12.48;;;;;;;15.25;nan;100404.56;5056904;28;20029;-71
2023/05/28 03:00:46;;;;;;;25.48;12.68;;;;;;;15.42;nan;100433.56;5058623;28;20029;-70
2023/05/28 03:03:11;;;;;;;24.05;13.40;;;;;;;15.34;nan;100414.66;5058516;28;20399;-70
2023/05/28 03:05:37;;;;;;;20.17;13.32;;;;;;;15.38;nan;100426.38;5055683;28;20032;-70
2023/05/28 03:08:03;;;;;;;22.75;12.55;;;;;;;15.37;nan;100424.75;5060186;28;20020;-71
2023/05/28 03:10:28;;;;;;;30.52;13.40;;;;;;;15.34;nan;100414.66;5056247;28;20356;-70
2023/05/28 03:12:54;;;;;;;21.15;13.77;;;;;;;15.26;nan;100410.66;5054419;28;20107;-70
2023/05/28 03:15:19;;;;;;;27.20;13.43;;;;;;;15.37;nan;100436.19;5043037;28;20470;-70
2023/05/28 03:17:44;;;;;;;24.55;13.18;;;;;;;15.24;nan;100410.09;5057045;28;20032;-71
2023/05/28 03:20:11;;;;;;;22.75;13.20;;;;;;;15.25;nan;100419.66;5045093;28;20066;-70
2023/05/28 03:22:37;;;;;;;22.60;12.80;;;;;;;15.32;nan;100428.19;5059347;28;20040;-70
2023/05/28 03:25:04;;;;;;;21.65;12.40;;;;;;;15.26;nan;100415.97;5058629;28;20033;-71
2023/05/28 03:27:30;;;;;;;24.25;13.05;;;;;;;15.24;nan;100413.53;5060266;28;20070;-71
2023/05/28 03:29:55;;;;;;;23.25;13.15;;;;;;;15.29;nan;100426.84;5039714;28;20025;-71
2023/05/28 03:32:21;;;;;;;26.27;13.23;;;;;;;15.24;nan;100418.06;5059617;28;20029;-71
2023/05/28 03:34:46;;;;;;;19.35;12.40;;;;;;;15.35;nan;100434.81;5055468;28;20027;-71
2023/05/28 03:37:12;;;;;;;18.98;12.38;;;;;;;15.33;nan;100435.09;5057673;28;20099;-70
2023/05/28 03:39:37;;;;;;;20.60;12.35;;;;;;;15.28;nan;100424.47;5058484;28;20467;-71
2023/05/28 03:42:03;;;;;;;24.92;12.48;;;;;;;15.33;nan;100429.78;5058120;28;20028;-72
2023/05/28 03:44:28;;;;;;;20.63;12.50;;;;;;;15.35;nan;100433.00;5054419;28;20060;-71
2023/05/28 03:46:54;;;;;;;20.65;12.55;;;;;;;15.44;nan;100438.59;5056598;28;20029;-71
2023/05/28 03:49:19;;;;;;;20.10;11.77;;;;;;;15.47;nan;100444.22;5059741;28;20032;-72
2023/05/28 03:51:45;;;;;;;20.95;13.25;;;;;;;15.42;nan;100441.53;5057930;28;20036;-72
2023/05/28 03:54:10;;;;;;;22.50;12.30;;;;;;;15.48;nan;100453.75;5054540;28;20029;-72
2023/05/28 03:56:36;;;;;;;17.15;12.20;;;;;;;15.38;nan;100437.78;5057869;28;20017;-72
2023/05/28 03:59:01;;;;;;;21.63;11.70;;;;;;;15.37;nan;100438.84;5059992;28;20039;-72
2023/05/28 04:01:27;;;;;;;24.15;11.95;;;;;;;15.17;nan;100414.81;5058019;28;20017;-72
2023/05/28 04:03:55;;;;;;;25.42;12.90;;;;;;;15.41;nan;100457.69;5058383;28;20395;-72
2023/05/28 04:06:20;;;;;;;20.38;11.82;;;;;;;15.33;nan;100448.38;5062818;28;20024;-72
2023/05/28 04:08:47;;;;;;;22.40;11.80;;;;;;;15.40;nan;100450.81;5051466;28;20667;-72
2023/05/28 04:11:12;;;;;;;15.60;11.80;;;;;;;15.25;nan;100443.53;5061563;28;20021;-72
2023/05/28 04:13:39;;;;;;;21.70;12.35;;;;;;;15.16;nan;100447.72;5061084;28;20028;-73
2023/05/28 04:16:07;;;;;;;17.13;12.23;;;;;;;15.18;nan;100449.06;5063717;28;20035;-73
2023/05/28 04:18:33;;;;;;;18.83;12.88;;;;;;;15.20;nan;100451.44;5045798;28;20111;-72
2023/05/28 04:20:58;;;;;;;19.48;12.10;;;;;;;15.12;nan;100443.97;5060145;28;20152;-72
2023/05/28 04:23:23;;;;;;;18.10;12.68;;;;;;;15.07;nan;100442.88;5032066;28;20029;-71
2023/05/28 04:25:50;;;;;;;20.40;12.23;;;;;;;15.13;nan;100438.41;5051927;28;20032;-72
2023/05/28 04:28:15;;;;;;;18.90;12.63;;;;;;;;;;5047962;28;20477;-72
2023/05/28 04:30:40;;;;;;;20.75;12.15;;;;;;;;;;5062324;28;20119;-72
2023/05/28 04:33:06;;;;;;;18.52;12.05;;;;;;;;;;5062241;28;20020;-69
2023/05/28 04:35:32;;;;;;;16.70;11.85;;;;;;;;;;5060281;28;20035;-72
2023/05/28 04:37:57;;;;;;;14.57;11.37;;;;;;;;;;5062785;28;20084;-73
2023/05/28 04:40:22;;;;;;;15.73;12.23;;;;;;;;;;5060846;28;21096;-72
2023/05/28 04:42:47;;;;;;;18.75;12.50;;;;;;;;;;5062239;28;20059;-72
2023/05/28 04:45:13;;;;;;;16.87;11.50;;;;;;;;;;5065282;28;20541;-72
2023/05/28 04:47:38;;;;;;;19.42;13.30;;;;;;;;;;5066438;28;20075;-72
2023/05/28 04:50:04;;;;;;;17.40;12.48;;;;;;;;;;5061921;28;20085;-72
2023/05/28 04:52:32;;;;;;;18.45;13.30;;;;;;;;;;5058340;28;20057;-72
2023/05/28 04:54:58;;;;;;;20.10;13.90;;;;;;;;;;5058379;28;20106;-71
2023/05/28 04:57:23;;;;;;;19.75;13.77;;;;;;;14.79;nan;100436.00;5046670;28;20037;-73
2023/05/28 04:59:49;;;;;;;19.23;13.25;;;;;;;;;;5061753;28;20039;-72
2023/05/28 05:02:16;;;;;;;18.83;13.30;;;;;;;;;;5056912;28;20444;-72
2023/05/28 05:04:42;;;;;;;19.08;13.18;;;;;;;;;;5058012;28;20044;-72
2023/05/28 05:07:07;;;;;;;18.35;12.60;;;;;;;;;;5058309;28;20099;-72
2023/05/28 05:09:32;;;;;;;20.37;13.83;;;;;;;;;;5058346;28;20394;-72
2023/05/28 05:11:57;;;;;;;18.93;13.73;;;;;;;;;;5043591;28;20438;-74
2023/05/28 05:14:23;;;;;;;19.60;13.23;;;;;;;;;;5056930;28;20173;-72
2023/05/28 05:16:48;;;;;;;19.13;13.80;;;;;;;;;;5058299;28;20289;-73
2023/05/28 05:19:13;;;;;;;21.83;14.77;;;;;;;;;;5060246;28;20025;-69
2023/05/28 05:21:39;;;;;;;75.28;38.45;;;;;;;14.73;nan;100474.13;5058084;28;20055;-70
2023/05/28 05:24:04;;;;;;;31.13;21.02;;;;;;;14.80;nan;100485.34;5059089;28;20067;-70
2023/05/28 05:26:30;;;;;;;20.67;14.80;;;;;;;14.71;nan;100483.38;5058376;28;20386;-70
2023/05/28 05:28:55;;;;;;;20.83;13.80;;;;;;;14.67;nan;100488.38;5061839;28;20432;-70
2023/05/28 05:31:21;;;;;;;22.83;15.30;;;;;;;14.77;nan;100500.94;5056164;28;20112;-70
2023/05/28 05:33:46;;;;;;;23.27;14.73;;;;;;;14.78;nan;100484.78;5057712;28;20466;-70
2023/05/28 05:36:11;;;;;;;28.50;15.18;;;;;;;14.74;nan;100470.41;5056009;28;20048;-70
2023/05/28 05:38:38;;;;;;;31.52;16.73;;;;;;;14.96;nan;100496.88;5059386;28;20600;-70
2023/05/28 05:41:03;;;;;;;30.38;16.35;;;;;;;14.98;nan;100489.47;5055040;28;20033;-70
2023/05/28 05:43:28;;;;;;;22.70;15.77;;;;;;;15.03;nan;100488.72;5043131;28;20013;-74
2023/05/28 05:45:54;;;;;;;27.38;16.25;;;;;;;15.04;nan;100488.47;5056626;28;20411;-74
2023/05/28 05:48:20;;;;;;;27.08;16.70;;;;;;;15.09;nan;100501.78;5053812;28;20414;-73
2023/05/28 05:50:49;;;;;;;30.35;17.20;;;;;;;15.12;nan;100497.03;5059386;28;20025;-74
2023/05/28 05:53:15;;;;;;;32.97;16.65;;;;;;;15.13;nan;100494.09;5056711;28;20494;-73
2023/05/28 05:55:40;;;;;;;29.70;18.42;;;;;;;15.21;nan;100495.50;5041213;28;20079;-74
2023/05/28 05:58:06;;;;;;;25.55;16.15;;;;;;;15.23;nan;100498.72;5059306;28;20460;-72
2023/05/28 06:00:31;;;;;;;23.45;15.40;;;;;;;15.24;nan;100493.13;5056211;28;20037;-72
2023/05/28 06:02:57;;;;;;;23.20;15.48;;;;;;;15.15;nan;100470.78;5056080;28;20116;-72
2023/05/28 06:05:22;;;;;;;24.08;15.95;;;;;;;15.24;nan;100479.06;5054321;28;20119;-74
2023/05/28 06:07:47;;;;;;;24.50;16.17;;;;;;;15.32;nan;100499.81;5058408;28;20463;-73
2023/05/28 06:10:13;;;;;;;27.60;16.00;;;;;;;15.34;nan;100499.56;5045380;28;20119;-72
2023/05/28 06:12:38;;;;;;;24.67;16.58;;;;;;;15.33;nan;100501.44;5059595;28;20169;-72
2023/05/28 06:15:05;;;;;;;27.60;15.00;;;;;;;14.81;nan;100433.09;5038541;28;20050;-72
2023/05/28 06:17:31;;;;;;;23.73;14.35;;;;;;;15.35;nan;100498.50;5057198;28;20278;-73
2023/05/28 06:19:56;;;;;;;19.95;14.40;;;;;;;15.42;nan;100512.34;5058261;28;20077;-73
2023/05/28 06:22:22;;;;;;;23.65;15.35;;;;;;;15.40;nan;100509.97;5057392;28;20116;-73
2023/05/28 06:24:49;;;;;;;25.48;15.80;;;;;;;15.35;nan;100491.38;5054655;28;20438;-73
2023/05/28 06:27:15;;;;;;;26.70;15.05;;;;;;;15.45;nan;100512.66;5052867;28;20020;-73
2023/05/28 06:29:41;;;;;;;26.88;15.75;;;;;;;15.42;nan;100513.19;5042290;28;20039;-72
2023/05/28 06:32:07;;;;;;;22.90;15.10;;;;;;;15.39;nan;100500.41;5056625;28;21288;-75
2023/05/28 06:34:32;;;;;;;25.60;15.93;;;;;;;15.43;nan;100508.66;5053465;28;20039;-76
2023/05/28 06:36:57;;;;;;;23.05;16.13;;;;;;;15.56;nan;100515.38;5056977;28;20093;-75
2023/05/28 06:39:23;;;;;;;25.02;15.63;;;;;;;15.59;nan;100518.34;5054332;28;20037;-76
2023/05/28 06:41:48;;;;;;;25.08;15.48;;;;;;;15.60;nan;100505.88;5054595;28;20516;-75
2023/05/28 06:44:14;;;;;;;26.00;15.85;;;;;;;15.61;nan;100505.63;5056003;28;20032;-75
2023/05/28 06:46:39;;;;;;;23.50;15.45;;;;;;;15.63;nan;100497.38;5058410;28;20036;-75
2023/05/28 06:49:05;;;;;;;27.38;16.05;;;;;;;15.76;nan;100518.22;5054937;28;20029;-75
2023/05/28 06:51:31;;;;;;;22.15;15.73;;;;;;;15.78;nan;100505.50;5055511;28;20441;-75
2023/05/28 06:53:56;;;;;;;21.50;14.23;;;;;;;15.88;nan;100521.47;5056443;28;20025;-75
2023/05/28 06:56:22;;;;;;;20.98;14.48;;;;;;;15.85;nan;100502.59;5054623;28;20473;-75
2023/05/28 06:58:49;;;;;;;17.67;13.38;;;;;;;15.98;nan;100522.59;5054957;28;20579;-76
2023/05/28 07:01:14;;;;;;;19.75;13.75;;;;;;;16.04;nan;100529.50;5055172;28;20097;-75
2023/05/28 07:03:40;;;;;;;21.42;13.57;;;;;;;;;;5053079;28;20360;-76
2023/05/28 07:06:05;;;;;;;19.65;12.85;;;;;;;16.43;nan;100561.06;5045752;28;20128;-75
2023/05/28 07:08:31;;;;;;;16.80;12.57;;;;;;;16.16;nan;100516.81;5055003;28;20676;-75
2023/05/28 07:10:56;;;;;;;20.17;13.90;;;;;;;16.13;nan;100517.34;5038876;28;20089;-75
2023/05/28 07:13:21;;;;;;;20.85;13.20;;;;;;;16.29;nan;100527.00;5059317;28;20078;-74
2023/05/28 07:15:47;;;;;;;21.67;14.68;;;;;;;16.35;nan;100536.59;5055695;28;20111;-74
2023/05/28 07:18:13;;;;;;;18.75;12.93;;;;;;;16.32;nan;100531.78;5056369;28;20513;-74
2023/05/28 07:20:38;;;;;;;18.42;13.48;;;;;;;16.29;nan;100532.31;5055551;28;20577;-74
2023/05/28 07:23:04;;;;;;;20.38;13.80;;;;;;;16.31;nan;100519.56;5042591;28;20025;-74
2023/05/28 07:25:29;;;;;;;18.33;13.75;;;;;;;16.44;nan;100530.75;5056579;28;20025;-74
2023/05/28 07:27:55;;;;;;;18.33;12.98;;;;;;;16.56;nan;100541.97;5059436;28;20071;-74
2023/05/28 07:30:20;;;;;;;19.45;13.43;;;;;;;16.58;nan;100537.97;5055571;28;20033;-75
2023/05/28 07:32:46;;;;;;;21.25;13.02;;;;;;;16.66;nan;100535.88;5055155;28;20039;-75
2023/05/28 07:35:11;;;;;;;19.08;12.65;;;;;;;16.66;nan;100526.03;5057746;28;20478;-75
2023/05/28 07:37:38;;;;;;;17.40;12.90;;;;;;;16.69;nan;100524.72;5056503;28;20061;-75
2023/05/28 07:40:05;;;;;;;18.48;13.55;;;;;;;16.82;nan;100534.09;5059709;28;20041;-74
2023/05/28 07:42:30;;;;;;;21.10;12.50;;;;;;;16.87;nan;100536.75;5061129;28;20083;-73
2023/05/28 07:44:56;;;;;;;15.57;12.02;;;;;;;16.85;nan;100521.06;5061128;28;20021;-75
2023/05/28 07:47:21;;;;;;;17.15;12.10;;;;;;;16.94;nan;100526.66;5059355;28;20454;-75
2023/05/28 07:49:46;;;;;;;18.52;12.43;;;;;;;16.98;nan;100527.75;5061517;28;20058;-74
2023/05/28 07:52:12;;;;;;;18.00;11.63;;;;;;;17.06;nan;100537.84;5057987;28;20017;-74
2023/05/28 07:54:39;;;;;;;18.05;11.75;;;;;;;17.08;nan;100537.59;5058376;28;20052;-74
2023/05/28 07:57:05;;;;;;;15.68;11.35;;;;;;;17.05;nan;100528.28;5062494;28;20082;-73
2023/05/28 07:59:31;;;;;;;16.15;11.75;;;;;;;17.04;nan;100517.91;5047798;28;20036;-72
2023/05/28 08:01:56;;;;;;;15.20;11.60;;;;;;;17.18;nan;100543.72;5042968;28;20052;-74
2023/05/28 08:04:22;;;;;;;15.32;10.93;;;;;;;17.12;nan;100520.84;5045302;28;20048;-72
2023/05/28 08:06:48;;;;;;;15.82;11.88;;;;;;;17.21;nan;100527.25;5059114;28;20033;-74
2023/05/28 08:09:17;;;;;;;16.58;11.35;;;;;;;17.52;nan;100558.38;5057254;28;20546;-74
2023/05/28 08:11:43;;;;;;;17.33;11.68;;;;;;;17.42;nan;100537.88;5055134;28;20032;-73
2023/05/28 08:14:08;;;;;;;18.25;12.32;;;;;;;17.41;nan;100520.31;5041082;28;20028;-74
2023/05/28 08:16:34;;;;;;;16.20;12.38;;;;;;;17.53;nan;100536.81;5058473;28;20019;-73
2023/05/28 08:19:00;;;;;;;14.98;12.05;;;;;;;17.57;nan;100524.53;5059990;28;20693;-73
2023/05/28 08:21:26;;;;;;;17.35;12.10;;;;;;;17.60;nan;100524.00;5057583;28;20020;-73
2023/05/28 08:23:53;;;;;;;15.43;12.20;;;;;;;17.67;nan;100517.59;5038970;28;20471;-73
2023/05/28 08:26:18;;;;;;;16.27;12.15;;;;;;;17.82;nan;100525.59;5060461;28;20028;-74
2023/05/28 08:28:44;;;;;;;14.75;11.82;;;;;;;17.86;nan;100523.97;5057137;28;20039;-73
2023/05/28 08:31:09;;;;;;;20.13;12.13;;;;;;;17.96;nan;100523.19;5059483;28;20120;-73
2023/05/28 08:33:35;;;;;;;18.58;11.77;;;;;;;18.14;nan;100527.09;5058710;28;20028;-72
2023/05/28 08:36:01;;;;;;;14.23;11.27;;;;;;;18.23;nan;100530.81;5058560;28;20036;-74
2023/05/28 08:38:29;;;;;;;14.85;11.60;;;;;;;18.31;nan;100532.91;5061083;28;20019;-74
2023/05/28 08:40:55;;;;;;;17.20;11.80;;;;;;;18.27;nan;100513.22;5056782;28;20608;-74
2023/05/28 08:43:21;;;;;;;17.35;12.85;;;;;;;18.48;nan;100529.88;5059551;28;20034;-74
2023/05/28 08:45:46;;;;;;;15.02;11.65;;;;;;;18.47;nan;100521.09;5044170;28;20067;-75
2023/05/28 08:48:14;;;;;;;17.50;12.30;;;;;;;18.54;nan;100522.69;5046982;28;20474;-76
2023/05/28 08:50:41;;;;;;;17.08;12.57;;;;;;;18.65;nan;100526.88;5056149;28;20040;-76
2023/05/28 08:53:11;;;;;;;16.40;12.15;;;;;;;18.69;nan;100517.25;5056827;28;20134;-77
2023/05/28 08:55:36;;;;;;;19.85;12.88;;;;;;;18.81;nan;100528.41;5056596;28;20075;-78
2023/05/28 08:58:03;;;;;;;16.35;12.75;;;;;;;18.97;nan;100534.44;5057074;28;20576;-75
2023/05/28 09:00:28;;;;;;;18.50;12.48;;;;;;;18.96;nan;100522.16;5058693;28;20025;-75
2023/05/28 09:02:54;;;;;;;15.00;10.88;;;;;;;19.07;nan;100520.22;5058610;28;20488;-76
2023/05/28 09:05:19;;;;;;;18.80;12.57;;;;;;;18.98;nan;100485.31;5064622;28;20020;-75
2023/05/28 09:07:45;;;;;;;16.52;12.18;;;;;;;19.23;nan;100515.59;5061150;28;20040;-78
2023/05/28 09:10:13;;;;;;;17.40;13.02;;;;;;;19.31;nan;100526.44;5058743;28;20032;-76
2023/05/28 09:12:41;;;;;;;15.43;11.73;;;;;;;19.38;nan;100528.00;5059827;28;20133;-77
2023/05/28 09:15:07;;;;;;;15.25;11.48;;;;;;;19.36;nan;100503.44;5058232;28;20044;-77
2023/05/28 09:17:37;;;;;;;16.95;12.55;;;;;;;19.46;nan;100514.03;5059573;28;20025;-76
2023/05/28 09:20:12;;;;;;;16.85;11.95;;;;;;;19.60;nan;100522.97;5059211;28;20046;-77
2023/05/28 09:22:38;;;;;;;16.48;11.95;;;;;;;19.61;nan;100508.56;5043173;28;20459;-78
2023/05/28 09:25:06;;;;;;;16.73;11.98;;;;;;;19.79;nan;100514.28;5057950;28;20118;-76
2023/05/28 09:27:32;;;;;;;23.00;12.70;;;;;;;19.86;nan;100501.38;5059972;28;20040;-78
2023/05/28 09:30:07;;;;;;;15.30;11.27;;;;;;;19.82;nan;100486.97;5060331;28;20029;-78
2023/05/28 09:32:36;;;;;;;15.73;11.85;;;;;;;19.89;nan;100482.88;5059569;28;20046;-78
2023/05/28 09:35:04;;;;;;;16.52;12.02;;;;;;;20.03;nan;100492.91;5057805;28;20024;-78
2023/05/28 09:37:30;;;;;;;16.25;11.50;;;;;;;20.09;nan;100495.22;5056729;28;20036;-77
2023/05/28 09:40:09;;;;;;;14.10;11.48;;;;;;;20.20;nan;100490.53;5056510;28;20032;-75
2023/05/28 09:42:43;;;;;;;16.80;11.77;;;;;;;20.26;nan;100500.09;5058133;28;20801;-78
2023/05/28 09:45:10;;;;;;;13.13;11.57;;;;;;;20.33;nan;100489.84;5056320;28;20028;-76
2023/05/28 09:47:43;;;;;;;15.80;11.73;;;;;;;20.38;nan;100484.44;5055196;28;20036;-80
2023/05/28 09:50:09;;;;;;;17.27;12.13;;;;;;;20.50;nan;100483.22;5058085;28;20032;-77
2023/05/28 09:52:38;;;;;;;15.85;12.15;;;;;;;20.58;nan;100472.66;5041603;28;20017;-78
2023/05/28 09:55:06;;;;;;;13.15;10.60;;;;;;;20.56;nan;100453.44;5055502;28;20044;-77
2023/05/28 09:57:33;;;;;;;17.58;11.50;;;;;;;20.62;nan;100454.16;5046831;28;20123;-79
2023/05/28 10:00:11;;;;;;;12.43;9.85;;;;;;;20.70;nan;100453.50;5048581;28;20082;-77
2023/05/28 10:03:10;;;;;;;12.55;10.75;;;;;;;20.87;nan;100471.69;5055919;28;20028;-78
2023/05/28 10:05:36;;;;;;;13.43;9.77;;;;;;;20.90;nan;100462.28;5037996;28;20025;-78
2023/05/28 10:08:04;;;;;;;13.98;10.40;;;;;;;20.96;nan;100464.59;5054005;28;20054;-78
2023/05/28 10:10:31;;;;;;;11.93;10.43;;;;;;;21.02;nan;100457.28;5059982;28;20690;-76
2023/05/28 10:12:58;;;;;;;14.63;10.35;;;;;;;21.10;nan;100453.94;5059780;28;20052;-76
2023/05/28 10:15:24;;;;;;;14.73;10.80;;;;;;;21.10;nan;100431.72;5057909;28;20441;-72
2023/05/28 10:17:53;;;;;;;13.30;10.95;;;;;;;21.27;nan;100447.22;5056406;28;20028;-72
2023/05/28 10:20:18;;;;;;;17.57;10.37;;;;;;;21.36;nan;100446.25;5058255;28;20386;-76
2023/05/28 10:22:44;;;;;;;11.30;9.50;;;;;;;21.35;nan;100433.13;5056437;28;20290;-74
2023/05/28 10:25:11;;;;;;;12.15;9.70;;;;;;;21.47;nan;100441.50;5038354;28;20028;-75
2023/05/28 10:27:44;;;;;;;12.20;9.25;;;;;;;21.57;nan;100435.16;5056775;28;20024;-76
2023/05/28 10:30:11;;;;;;;14.57;9.55;;;;;;;21.59;nan;100446.38;5053671;28;20032;-77
2023/05/28 10:32:41;;;;;;;13.50;9.60;;;;;;;21.61;nan;100433.50;5055404;28;20025;-76
2023/05/28 10:35:09;;;;;;;11.73;9.02;;;;;;;21.69;nan;100430.09;5056085;28;20115;-75
2023/05/28 10:37:35;;;;;;;13.63;8.77;;;;;;;21.87;nan;100439.13;5039750;28;20029;-74
2023/05/28 10:40:01;;;;;;;10.57;8.32;;;;;;;21.91;nan;100432.09;5055681;28;20117;-74
2023/05/28 10:42:27;;;;;;;12.05;9.18;;;;;;;21.96;nan;100425.84;5055711;28;20025;-71
2023/05/28 10:45:08;;;;;;;11.75;8.38;;;;;;;22.06;nan;100429.06;5059475;28;20039;-71
2023/05/28 10:47:41;;;;;;;13.85;8.57;;;;;;;22.09;nan;100422.31;5055023;28;20045;-71
2023/05/28 10:50:09;;;;;;;10.55;9.07;;;;;;;22.15;nan;100422.97;5056757;28;20031;-71
2023/05/28 10:52:36;;;;;;;11.50;8.68;;;;;;;22.15;nan;100418.44;5055642;28;20033;-70
2023/05/28 10:55:03;;;;;;;13.10;8.68;;;;;;;22.20;nan;100413.00;5053915;28;20049;-71
2023/05/28 10:57:48;;;;;;;12.75;8.55;;;;;;;22.25;nan;100406.72;5054375;28;20737;-70
2023/05/28 11:00:24;;;;;;;13.40;8.32;;;;;;;22.36;nan;100400.00;5056514;28;20029;-71
2023/05/28 11:02:53;;;;;;;11.90;8.32;;;;;;;22.56;nan;100422.13;5053185;28;20040;-70
2023/05/28 11:05:25;;;;;;;11.68;8.05;;;;;;;22.58;nan;100420.72;5055953;28;20436;-71
2023/05/28 11:07:51;;;;;;;11.55;7.60;;;;;;;22.66;nan;100421.88;5055442;28;20036;-70
2023/05/28 11:10:16;;;;;;;11.68;7.57;;;;;;;22.72;nan;100409.88;5057088;28;20105;-71
2023/05/28 11:12:43;;;;;;;9.80;7.88;;;;;;;22.71;nan;100397.56;5058765;28;20029;-71
2023/05/28 11:15:11;;;;;;;15.02;7.63;;;;;;;22.76;nan;100389.41;5059954;28;20035;-71
2023/05/28 11:17:38;;;;;;;10.23;7.67;;;;;;;22.84;nan;100395.91;5050046;28;20055;-71
2023/05/28 11:20:05;;;;;;;11.75;7.50;;;;;;;22.93;nan;100400.22;5050865;28;20829;-70
2023/05/28 11:22:35;;;;;;;8.40;6.60;;;;;;;22.97;nan;100394.25;5046201;28;20036;-72
2023/05/28 11:25:08;;;;;;;12.63;7.38;;;;;;;23.13;nan;100406.22;5042899;28;20061;-71
2023/05/28 11:27:37;;;;;;;9.40;7.20;;;;;;;23.09;nan;100379.19;5041635;28;20513;-74
2023/05/28 11:30:08;;;;;;;8.50;7.20;;;;;;;23.11;nan;100385.03;5063081;28;20051;-74
2023/05/28 11:32:34;;;;;;;10.80;7.18;;;;;;;23.14;nan;100389.00;5060737;28;20021;-74